sensor_id;sensor_type;location;lat;lon;timestamp;temperature;humidity
43151;DHT22;28755;51.478;5.702;2024-01-30T00:01:11;9.20;99.90
43151;DHT22;28755;51.478;5.702;2024-01-30T00:03:36;9.40;99.90
43151;DHT22;28755;51.478;5.702;2024-01-30T00:06:03;9.00;99.90
43151;DHT22;28755;51.478;5.702;2024-01-30T00:08:29;9.00;99.90
43151;DHT22;28755;51.478;5.702;2024-01-30T00:10:54;9.20;99.90
43151;DHT22;28755;51.478;5.702;2024-01-30T00:13:20;9.30;99.90
43151;DHT22;28755;51.478;5.702;2024-01-30T00:15:46;9.00;99.90
43151;DHT22;28755;51.478;5.702;2024-01-30T00:18:12;9.50;99.90
43151;DHT22;28755;51.478;5.702;2024-01-30T00:20:37;8.90;99.90
43151;DHT22;28755;51.478;5.702;2024-01-30T00:23:03;8.90;99.90
43151;DHT22;28755;51.478;5.702;2024-01-30T00:25:29;8.90;99.90
43151;DHT22;28755;51.478;5.702;2024-01-30T00:27:54;8.90;99.90
43151;DHT22;28755;51.478;5.702;2024-01-30T00:30:21;8.90;99.90
43151;DHT22;28755;51.478;5.702;2024-01-30T00:32:46;8.90;99.90
43151;DHT22;28755;51.478;5.702;2024-01-30T00:35:12;8.80;99.90
43151;DHT22;28755;51.478;5.702;2024-01-30T00:37:37;8.80;99.90
43151;DHT22;28755;51.478;5.702;2024-01-30T00:40:03;8.70;99.90
43151;DHT22;28755;51.478;5.702;2024-01-30T00:42:29;8.80;99.90
43151;DHT22;28755;51.478;5.702;2024-01-30T00:44:55;8.70;99.90
43151;DHT22;28755;51.478;5.702;2024-01-30T00:47:20;8.70;99.90
43151;DHT22;28755;51.478;5.702;2024-01-30T00:49:46;8.90;99.90
43151;DHT22;28755;51.478;5.702;2024-01-30T00:52:12;8.70;99.90
43151;DHT22;28755;51.478;5.702;2024-01-30T00:54:37;8.70;99.90
43151;DHT22;28755;51.478;5.702;2024-01-30T00:57:03;8.60;99.90
43151;DHT22;28755;51.478;5.702;2024-01-30T00:59:29;8.60;99.90
43151;DHT22;28755;51.478;5.702;2024-01-30T01:01:54;8.40;99.90
43151;DHT22;28755;51.478;5.702;2024-01-30T01:04:20;8.50;99.90
43151;DHT22;28755;51.478;5.702;2024-01-30T01:06:47;8.70;99.90
43151;DHT22;28755;51.478;5.702;2024-01-30T01:09:13;8.60;99.90
43151;DHT22;28755;51.478;5.702;2024-01-30T01:11:38;8.80;99.90
43151;DHT22;28755;51.478;5.702;2024-01-30T01:14:04;8.50;99.90
43151;DHT22;28755;51.478;5.702;2024-01-30T01:16:30;8.60;99.90
43151;DHT22;28755;51.478;5.702;2024-01-30T01:18:56;8.50;99.90
43151;DHT22;28755;51.478;5.702;2024-01-30T01:21:21;8.40;99.90
43151;DHT22;28755;51.478;5.702;2024-01-30T01:23:47;8.80;99.90
43151;DHT22;28755;51.478;5.702;2024-01-30T01:26:13;8.40;99.90
43151;DHT22;28755;51.478;5.702;2024-01-30T01:28:41;8.40;99.90
43151;DHT22;28755;51.478;5.702;2024-01-30T01:31:07;8.50;99.90
43151;DHT22;28755;51.478;5.702;2024-01-30T01:33:33;8.40;99.90
43151;DHT22;28755;51.478;5.702;2024-01-30T01:35:59;8.60;99.90
43151;DHT22;28755;51.478;5.702;2024-01-30T01:38:28;8.50;99.90
43151;DHT22;28755;51.478;5.702;2024-01-30T01:40:53;8.30;99.90
43151;DHT22;28755;51.478;5.702;2024-01-30T01:43:19;8.30;99.90
43151;DHT22;28755;51.478;5.702;2024-01-30T01:45:45;8.30;99.90
43151;DHT22;28755;51.478;5.702;2024-01-30T01:48:11;8.40;99.90
43151;DHT22;28755;51.478;5.702;2024-01-30T01:50:38;8.40;99.90
43151;DHT22;28755;51.478;5.702;2024-01-30T01:53:06;8.80;99.90
43151;DHT22;28755;51.478;5.702;2024-01-30T01:55:33;8.30;99.90
43151;DHT22;28755;51.478;5.702;2024-01-30T01:58:00;8.40;99.90
43151;DHT22;28755;51.478;5.702;2024-01-30T02:00:26;8.20;99.90
43151;DHT22;28755;51.478;5.702;2024-01-30T02:02:53;8.10;99.90
43151;DHT22;28755;51.478;5.702;2024-01-30T02:05:19;8.30;99.90
43151;DHT22;28755;51.478;5.702;2024-01-30T02:07:46;8.20;99.90
43151;DHT22;28755;51.478;5.702;2024-01-30T02:10:12;8.30;99.90
43151;DHT22;28755;51.478;5.702;2024-01-30T02:12:37;8.20;99.90
43151;DHT22;28755;51.478;5.702;2024-01-30T02:15:04;8.20;99.90
43151;DHT22;28755;51.478;5.702;2024-01-30T02:17:30;8.20;99.90
43151;DHT22;28755;51.478;5.702;2024-01-30T02:19:56;8.40;99.90
43151;DHT22;28755;51.478;5.702;2024-01-30T02:22:22;8.50;99.90
43151;DHT22;28755;51.478;5.702;2024-01-30T02:24:49;8.20;99.90
43151;DHT22;28755;51.478;5.702;2024-01-30T02:27:15;8.20;99.90
43151;DHT22;28755;51.478;5.702;2024-01-30T02:29:40;8.10;99.90
43151;DHT22;28755;51.478;5.702;2024-01-30T02:32:06;8.40;99.90
43151;DHT22;28755;51.478;5.702;2024-01-30T02:34:33;8.30;99.90
43151;DHT22;28755;51.478;5.702;2024-01-30T02:36:58;8.20;99.90
43151;DHT22;28755;51.478;5.702;2024-01-30T02:39:24;8.20;99.90
43151;DHT22;28755;51.478;5.702;2024-01-30T02:41:49;8.20;99.90
43151;DHT22;28755;51.478;5.702;2024-01-30T02:44:15;8.20;99.90
43151;DHT22;28755;51.478;5.702;2024-01-30T02:46:41;8.40;99.90
43151;DHT22;28755;51.478;5.702;2024-01-30T02:49:06;8.20;99.90
43151;DHT22;28755;51.478;5.702;2024-01-30T02:51:32;8.00;99.90
43151;DHT22;28755;51.478;5.702;2024-01-30T02:53:57;8.20;99.90
43151;DHT22;28755;51.478;5.702;2024-01-30T02:56:23;8.30;99.90
43151;DHT22;28755;51.478;5.702;2024-01-30T02:58:49;8.30;99.90
43151;DHT22;28755;51.478;5.702;2024-01-30T03:01:14;8.50;99.90
43151;DHT22;28755;51.478;5.702;2024-01-30T03:03:40;8.30;99.90
43151;DHT22;28755;51.478;5.702;2024-01-30T03:06:06;8.20;99.90
43151;DHT22;28755;51.478;5.702;2024-01-30T03:08:32;8.20;99.90
43151;DHT22;28755;51.478;5.702;2024-01-30T03:10:58;8.30;99.90
43151;DHT22;28755;51.478;5.702;2024-01-30T03:13:23;8.10;99.90
43151;DHT22;28755;51.478;5.702;2024-01-30T03:15:50;8.40;99.90
43151;DHT22;28755;51.478;5.702;2024-01-30T03:18:16;8.20;99.90
43151;DHT22;28755;51.478;5.702;2024-01-30T03:20:41;8.50;99.90
43151;DHT22;28755;51.478;5.702;2024-01-30T03:23:07;8.20;99.90
43151;DHT22;28755;51.478;5.702;2024-01-30T03:25:32;8.20;99.90
43151;DHT22;28755;51.478;5.702;2024-01-30T03:27:58;8.30;99.90
43151;DHT22;28755;51.478;5.702;2024-01-30T03:30:24;8.40;99.90
43151;DHT22;28755;51.478;5.702;2024-01-30T03:32:49;8.30;99.90
43151;DHT22;28755;51.478;5.702;2024-01-30T03:35:15;8.30;99.90
43151;DHT22;28755;51.478;5.702;2024-01-30T03:37:41;8.20;99.90
43151;DHT22;28755;51.478;5.702;2024-01-30T03:40:07;8.20;99.90
43151;DHT22;28755;51.478;5.702;2024-01-30T03:42:33;8.30;99.90
43151;DHT22;28755;51.478;5.702;2024-01-30T03:44:58;8.30;99.90
43151;DHT22;28755;51.478;5.702;2024-01-30T03:47:24;8.30;99.90
43151;DHT22;28755;51.478;5.702;2024-01-30T03:49:49;8.30;99.90
43151;DHT22;28755;51.478;5.702;2024-01-30T03:52:15;8.40;99.90
43151;DHT22;28755;51.478;5.702;2024-01-30T03:54:41;8.30;99.90
43151;DHT22;28755;51.478;5.702;2024-01-30T03:57:06;8.60;99.90
43151;DHT22;28755;51.478;5.702;2024-01-30T03:59:32;8.40;99.90
43151;DHT22;28755;51.478;5.702;2024-01-30T04:01:57;8.40;99.90
43151;DHT22;28755;51.478;5.702;2024-01-30T04:04:23;8.50;99.90
43151;DHT22;28755;51.478;5.702;2024-01-30T04:06:49;8.50;99.90
43151;DHT22;28755;51.478;5.702;2024-01-30T04:09:14;8.50;99.90
43151;DHT22;28755;51.478;5.702;2024-01-30T04:11:41;8.50;99.90
43151;DHT22;28755;51.478;5.702;2024-01-30T04:14:07;8.60;99.90
43151;DHT22;28755;51.478;5.702;2024-01-30T04:16:33;8.60;99.90
43151;DHT22;28755;51.478;5.702;2024-01-30T04:18:58;8.60;99.90
43151;DHT22;28755;51.478;5.702;2024-01-30T04:21:24;8.60;99.90
43151;DHT22;28755;51.478;5.702;2024-01-30T04:23:51;8.80;99.90
43151;DHT22;28755;51.478;5.702;2024-01-30T04:26:17;8.80;99.90
43151;DHT22;28755;51.478;5.702;2024-01-30T04:28:44;8.80;99.90
43151;DHT22;28755;51.478;5.702;2024-01-30T04:31:10;8.70;99.90
43151;DHT22;28755;51.478;5.702;2024-01-30T04:33:36;8.60;99.90
43151;DHT22;28755;51.478;5.702;2024-01-30T04:36:01;8.70;99.90
43151;DHT22;28755;51.478;5.702;2024-01-30T04:38:28;8.60;99.90
43151;DHT22;28755;51.478;5.702;2024-01-30T04:40:54;8.70;99.90
43151;DHT22;28755;51.478;5.702;2024-01-30T04:43:19;8.60;99.90
43151;DHT22;28755;51.478;5.702;2024-01-30T04:45:45;8.60;99.90
43151;DHT22;28755;51.478;5.702;2024-01-30T04:48:10;8.60;99.90
43151;DHT22;28755;51.478;5.702;2024-01-30T04:50:36;8.70;99.90
43151;DHT22;28755;51.478;5.702;2024-01-30T04:53:02;8.50;99.90
43151;DHT22;28755;51.478;5.702;2024-01-30T04:55:27;8.60;99.90
43151;DHT22;28755;51.478;5.702;2024-01-30T04:57:53;8.60;99.90
43151;DHT22;28755;51.478;5.702;2024-01-30T05:00:19;8.60;99.90
43151;DHT22;28755;51.478;5.702;2024-01-30T05:02:44;8.60;99.90
43151;DHT22;28755;51.478;5.702;2024-01-30T05:05:10;8.60;99.90
43151;DHT22;28755;51.478;5.702;2024-01-30T05:07:36;8.60;99.90
43151;DHT22;28755;51.478;5.702;2024-01-30T05:10:02;8.80;99.90
43151;DHT22;28755;51.478;5.702;2024-01-30T05:12:28;8.70;99.90
43151;DHT22;28755;51.478;5.702;2024-01-30T05:14:54;8.80;99.90
43151;DHT22;28755;51.478;5.702;2024-01-30T05:17:20;8.70;99.90
43151;DHT22;28755;51.478;5.702;2024-01-30T05:19:45;8.70;99.90
43151;DHT22;28755;51.478;5.702;2024-01-30T05:22:11;8.80;99.90
43151;DHT22;28755;51.478;5.702;2024-01-30T05:24:41;8.80;99.90
43151;DHT22;28755;51.478;5.702;2024-01-30T05:27:07;9.00;99.90
43151;DHT22;28755;51.478;5.702;2024-01-30T05:29:33;9.00;99.90
43151;DHT22;28755;51.478;5.702;2024-01-30T05:31:59;9.10;99.90
43151;DHT22;28755;51.478;5.702;2024-01-30T05:34:24;9.00;99.90
43151;DHT22;28755;51.478;5.702;2024-01-30T05:36:50;9.10;99.90
43151;DHT22;28755;51.478;5.702;2024-01-30T05:39:15;9.10;99.90
43151;DHT22;28755;51.478;5.702;2024-01-30T05:41:41;9.10;99.90
43151;DHT22;28755;51.478;5.702;2024-01-30T05:44:07;9.10;99.90
43151;DHT22;28755;51.478;5.702;2024-01-30T05:46:33;9.20;99.90
43151;DHT22;28755;51.478;5.702;2024-01-30T05:48:59;9.40;99.90
43151;DHT22;28755;51.478;5.702;2024-01-30T05:51:24;9.00;99.90
43151;DHT22;28755;51.478;5.702;2024-01-30T05:53:50;9.30;99.90
43151;DHT22;28755;51.478;5.702;2024-01-30T05:56:16;9.20;99.90
43151;DHT22;28755;51.478;5.702;2024-01-30T05:58:41;9.20;99.90
43151;DHT22;28755;51.478;5.702;2024-01-30T06:01:09;9.10;99.90
43151;DHT22;28755;51.478;5.702;2024-01-30T06:03:35;9.40;99.90
43151;DHT22;28755;51.478;5.702;2024-01-30T06:06:00;9.10;99.90
43151;DHT22;28755;51.478;5.702;2024-01-30T06:08:26;9.20;99.90
43151;DHT22;28755;51.478;5.702;2024-01-30T06:10:52;9.20;99.90
43151;DHT22;28755;51.478;5.702;2024-01-30T06:13:18;9.20;99.90
43151;DHT22;28755;51.478;5.702;2024-01-30T06:15:43;9.10;99.90
43151;DHT22;28755;51.478;5.702;2024-01-30T06:18:09;9.10;99.90
43151;DHT22;28755;51.478;5.702;2024-01-30T06:20:34;9.10;99.90
43151;DHT22;28755;51.478;5.702;2024-01-30T06:23:00;9.10;99.90
43151;DHT22;28755;51.478;5.702;2024-01-30T06:25:26;9.10;99.90
43151;DHT22;28755;51.478;5.702;2024-01-30T06:27:51;9.00;99.90
43151;DHT22;28755;51.478;5.702;2024-01-30T06:30:18;9.10;99.90
43151;DHT22;28755;51.478;5.702;2024-01-30T06:32:44;9.10;99.90
43151;DHT22;28755;51.478;5.702;2024-01-30T06:35:09;9.10;99.90
43151;DHT22;28755;51.478;5.702;2024-01-30T06:37:36;9.20;99.90
43151;DHT22;28755;51.478;5.702;2024-01-30T06:40:01;9.40;99.90
43151;DHT22;28755;51.478;5.702;2024-01-30T06:42:27;9.10;99.90
43151;DHT22;28755;51.478;5.702;2024-01-30T06:44:53;9.10;99.90
43151;DHT22;28755;51.478;5.702;2024-01-30T06:47:19;9.20;99.90
43151;DHT22;28755;51.478;5.702;2024-01-30T06:49:44;9.20;99.90
43151;DHT22;28755;51.478;5.702;2024-01-30T06:52:10;9.20;99.90
43151;DHT22;28755;51.478;5.702;2024-01-30T06:54:36;9.10;99.90
43151;DHT22;28755;51.478;5.702;2024-01-30T06:57:02;9.10;99.90
43151;DHT22;28755;51.478;5.702;2024-01-30T06:59:27;9.10;99.90
43151;DHT22;28755;51.478;5.702;2024-01-30T07:01:53;9.10;99.90
43151;DHT22;28755;51.478;5.702;2024-01-30T07:04:19;9.20;99.90
43151;DHT22;28755;51.478;5.702;2024-01-30T07:06:44;9.20;99.90
43151;DHT22;28755;51.478;5.702;2024-01-30T07:09:11;9.30;99.90
43151;DHT22;28755;51.478;5.702;2024-01-30T07:11:37;9.60;99.90
43151;DHT22;28755;51.478;5.702;2024-01-30T07:14:03;9.50;99.90
43151;DHT22;28755;51.478;5.702;2024-01-30T07:16:31;9.50;99.90
43151;DHT22;28755;51.478;5.702;2024-01-30T07:18:57;9.60;99.90
43151;DHT22;28755;51.478;5.702;2024-01-30T07:21:23;9.60;99.90
43151;DHT22;28755;51.478;5.702;2024-01-30T07:23:57;9.70;99.90
43151;DHT22;28755;51.478;5.702;2024-01-30T07:26:23;9.80;99.90
43151;DHT22;28755;51.478;5.702;2024-01-30T07:28:48;9.90;99.90
43151;DHT22;28755;51.478;5.702;2024-01-30T07:31:15;10.10;99.90
43151;DHT22;28755;51.478;5.702;2024-01-30T07:33:40;10.20;99.90
43151;DHT22;28755;51.478;5.702;2024-01-30T07:36:06;10.30;99.90
43151;DHT22;28755;51.478;5.702;2024-01-30T07:38:32;10.30;99.90
43151;DHT22;28755;51.478;5.702;2024-01-30T07:40:57;10.40;99.90
43151;DHT22;28755;51.478;5.702;2024-01-30T07:43:23;10.50;99.90
43151;DHT22;28755;51.478;5.702;2024-01-30T07:45:49;10.30;99.90
43151;DHT22;28755;51.478;5.702;2024-01-30T07:48:14;10.40;99.90
43151;DHT22;28755;51.478;5.702;2024-01-30T07:50:40;10.60;99.90
43151;DHT22;28755;51.478;5.702;2024-01-30T07:53:05;10.40;99.90
43151;DHT22;28755;51.478;5.702;2024-01-30T07:55:31;10.60;99.90
43151;DHT22;28755;51.478;5.702;2024-01-30T07:57:58;10.40;99.90
43151;DHT22;28755;51.478;5.702;2024-01-30T08:00:27;10.40;99.90
43151;DHT22;28755;51.478;5.702;2024-01-30T08:02:54;10.40;99.90
43151;DHT22;28755;51.478;5.702;2024-01-30T08:05:21;10.40;99.90
43151;DHT22;28755;51.478;5.702;2024-01-30T08:07:48;10.50;99.90
43151;DHT22;28755;51.478;5.702;2024-01-30T08:10:14;10.50;99.90
43151;DHT22;28755;51.478;5.702;2024-01-30T08:12:40;10.60;99.90
43151;DHT22;28755;51.478;5.702;2024-01-30T08:15:06;10.60;99.90
43151;DHT22;28755;51.478;5.702;2024-01-30T08:17:33;10.70;99.90
43151;DHT22;28755;51.478;5.702;2024-01-30T08:19:58;10.70;99.90
43151;DHT22;28755;51.478;5.702;2024-01-30T08:22:24;10.80;99.90
43151;DHT22;28755;51.478;5.702;2024-01-30T08:24:50;10.80;99.90
43151;DHT22;28755;51.478;5.702;2024-01-30T08:27:15;10.80;99.90
43151;DHT22;28755;51.478;5.702;2024-01-30T08:29:41;10.80;99.90
43151;DHT22;28755;51.478;5.702;2024-01-30T08:32:07;11.00;99.90
43151;DHT22;28755;51.478;5.702;2024-01-30T08:34:33;10.80;99.90
43151;DHT22;28755;51.478;5.702;2024-01-30T08:36:58;10.80;99.90
43151;DHT22;28755;51.478;5.702;2024-01-30T08:39:24;10.80;99.90
43151;DHT22;28755;51.478;5.702;2024-01-30T08:41:50;10.80;99.90
43151;DHT22;28755;51.478;5.702;2024-01-30T08:44:15;10.90;99.90
43151;DHT22;28755;51.478;5.702;2024-01-30T08:46:41;11.00;99.90
43151;DHT22;28755;51.478;5.702;2024-01-30T08:49:07;11.00;99.90
43151;DHT22;28755;51.478;5.702;2024-01-30T08:51:33;11.00;99.90
43151;DHT22;28755;51.478;5.702;2024-01-30T08:53:59;11.10;99.90
43151;DHT22;28755;51.478;5.702;2024-01-30T08:56:25;11.30;99.90
43151;DHT22;28755;51.478;5.702;2024-01-30T08:58:51;11.20;99.90
43151;DHT22;28755;51.478;5.702;2024-01-30T09:01:16;11.10;99.90
43151;DHT22;28755;51.478;5.702;2024-01-30T09:03:42;11.10;99.90
43151;DHT22;28755;51.478;5.702;2024-01-30T09:06:10;11.10;99.90
43151;DHT22;28755;51.478;5.702;2024-01-30T09:08:37;11.50;99.90
43151;DHT22;28755;51.478;5.702;2024-01-30T09:11:13;11.20;99.90
43151;DHT22;28755;51.478;5.702;2024-01-30T09:13:39;11.30;99.90
43151;DHT22;28755;51.478;5.702;2024-01-30T09:16:05;11.30;99.90
43151;DHT22;28755;51.478;5.702;2024-01-30T09:18:31;11.30;99.90
43151;DHT22;28755;51.478;5.702;2024-01-30T09:20:57;11.30;99.90
43151;DHT22;28755;51.478;5.702;2024-01-30T09:23:23;11.60;99.90
43151;DHT22;28755;51.478;5.702;2024-01-30T09:25:48;11.40;99.90
43151;DHT22;28755;51.478;5.702;2024-01-30T09:28:14;11.40;99.90
43151;DHT22;28755;51.478;5.702;2024-01-30T09:30:40;11.50;99.90
43151;DHT22;28755;51.478;5.702;2024-01-30T09:33:06;11.60;99.90
43151;DHT22;28755;51.478;5.702;2024-01-30T09:35:32;11.50;99.90
43151;DHT22;28755;51.478;5.702;2024-01-30T09:37:58;11.60;99.90
43151;DHT22;28755;51.478;5.702;2024-01-30T09:40:24;11.70;99.90
43151;DHT22;28755;51.478;5.702;2024-01-30T09:42:54;11.50;99.90
43151;DHT22;28755;51.478;5.702;2024-01-30T09:45:23;11.70;99.90
43151;DHT22;28755;51.478;5.702;2024-01-30T09:47:49;11.60;99.90
43151;DHT22;28755;51.478;5.702;2024-01-30T09:50:15;11.50;99.90
43151;DHT22;28755;51.478;5.702;2024-01-30T09:52:42;11.70;99.90
43151;DHT22;28755;51.478;5.702;2024-01-30T09:55:09;11.70;99.90
43151;DHT22;28755;51.478;5.702;2024-01-30T09:57:35;11.70;99.90
43151;DHT22;28755;51.478;5.702;2024-01-30T10:00:02;11.60;99.90
43151;DHT22;28755;51.478;5.702;2024-01-30T10:02:28;11.70;99.90
43151;DHT22;28755;51.478;5.702;2024-01-30T10:04:54;11.60;99.90
43151;DHT22;28755;51.478;5.702;2024-01-30T10:07:19;11.70;99.90
43151;DHT22;28755;51.478;5.702;2024-01-30T10:09:45;11.70;99.90
43151;DHT22;28755;51.478;5.702;2024-01-30T10:12:11;11.80;99.90
43151;DHT22;28755;51.478;5.702;2024-01-30T10:14:41;11.70;99.90
43151;DHT22;28755;51.478;5.702;2024-01-30T10:17:10;11.80;99.90
43151;DHT22;28755;51.478;5.702;2024-01-30T10:19:37;12.00;99.90
43151;DHT22;28755;51.478;5.702;2024-01-30T10:22:04;12.20;99.90
43151;DHT22;28755;51.478;5.702;2024-01-30T10:24:29;12.40;99.90
43151;DHT22;28755;51.478;5.702;2024-01-30T10:26:55;12.70;99.90
43151;DHT22;28755;51.478;5.702;2024-01-30T10:29:21;12.60;99.90
43151;DHT22;28755;51.478;5.702;2024-01-30T10:31:57;12.50;99.90
43151;DHT22;28755;51.478;5.702;2024-01-30T10:34:23;12.70;99.90
43151;DHT22;28755;51.478;5.702;2024-01-30T10:36:50;12.40;99.90
43151;DHT22;28755;51.478;5.702;2024-01-30T10:39:18;12.40;99.90
43151;DHT22;28755;51.478;5.702;2024-01-30T10:41:47;12.40;99.90
43151;DHT22;28755;51.478;5.702;2024-01-30T10:44:18;12.50;99.90
43151;DHT22;28755;51.478;5.702;2024-01-30T10:46:51;12.40;99.90
43151;DHT22;28755;51.478;5.702;2024-01-30T10:49:21;12.50;99.90
43151;DHT22;28755;51.478;5.702;2024-01-30T10:51:48;12.40;99.90
43151;DHT22;28755;51.478;5.702;2024-01-30T10:54:15;12.60;99.90
43151;DHT22;28755;51.478;5.702;2024-01-30T10:56:42;12.40;99.90
43151;DHT22;28755;51.478;5.702;2024-01-30T10:59:09;12.40;99.90
43151;DHT22;28755;51.478;5.702;2024-01-30T11:01:35;12.50;99.90
43151;DHT22;28755;51.478;5.702;2024-01-30T11:04:01;12.50;99.90
43151;DHT22;28755;51.478;5.702;2024-01-30T11:06:27;12.60;99.90
43151;DHT22;28755;51.478;5.702;2024-01-30T11:09:06;12.50;99.90
43151;DHT22;28755;51.478;5.702;2024-01-30T11:11:55;12.50;99.90
43151;DHT22;28755;51.478;5.702;2024-01-30T11:14:24;12.40;99.90
43151;DHT22;28755;51.478;5.702;2024-01-30T11:16:50;12.40;99.90
43151;DHT22;28755;51.478;5.702;2024-01-30T11:19:23;12.60;99.90
43151;DHT22;28755;51.478;5.702;2024-01-30T11:21:51;12.70;99.90
43151;DHT22;28755;51.478;5.702;2024-01-30T11:24:22;12.70;99.90
43151;DHT22;28755;51.478;5.702;2024-01-30T11:26:58;12.90;99.90
43151;DHT22;28755;51.478;5.702;2024-01-30T11:29:25;13.00;99.90
43151;DHT22;28755;51.478;5.702;2024-01-30T11:31:56;13.10;99.90
43151;DHT22;28755;51.478;5.702;2024-01-30T11:34:22;13.10;99.90
43151;DHT22;28755;51.478;5.702;2024-01-30T11:36:56;12.90;99.90
43151;DHT22;28755;51.478;5.702;2024-01-30T11:39:26;12.80;99.90
43151;DHT22;28755;51.478;5.702;2024-01-30T11:41:52;12.90;99.90
43151;DHT22;28755;51.478;5.702;2024-01-30T11:44:19;12.60;99.90
43151;DHT22;28755;51.478;5.702;2024-01-30T11:46:47;12.70;99.90
43151;DHT22;28755;51.478;5.702;2024-01-30T11:49:13;13.00;99.90
43151;DHT22;28755;51.478;5.702;2024-01-30T11:51:39;13.20;99.90
43151;DHT22;28755;51.478;5.702;2024-01-30T11:54:04;13.00;99.90
43151;DHT22;28755;51.478;5.702;2024-01-30T11:56:30;13.20;99.90
43151;DHT22;28755;51.478;5.702;2024-01-30T11:58:55;13.20;99.90
43151;DHT22;28755;51.478;5.702;2024-01-30T12:01:21;13.40;99.90
43151;DHT22;28755;51.478;5.702;2024-01-30T12:03:50;13.30;99.90
43151;DHT22;28755;51.478;5.702;2024-01-30T12:06:16;13.70;99.90
43151;DHT22;28755;51.478;5.702;2024-01-30T12:08:42;13.70;99.90
43151;DHT22;28755;51.478;5.702;2024-01-30T12:11:07;14.50;99.90
43151;DHT22;28755;51.478;5.702;2024-01-30T12:13:34;14.20;99.90
43151;DHT22;28755;51.478;5.702;2024-01-30T12:16:03;14.00;99.90
43151;DHT22;28755;51.478;5.702;2024-01-30T12:18:28;13.80;99.90
43151;DHT22;28755;51.478;5.702;2024-01-30T12:21:01;13.60;99.90
43151;DHT22;28755;51.478;5.702;2024-01-30T12:23:27;13.80;99.90
43151;DHT22;28755;51.478;5.702;2024-01-30T12:25:53;13.50;99.90
43151;DHT22;28755;51.478;5.702;2024-01-30T12:28:20;13.70;99.90
43151;DHT22;28755;51.478;5.702;2024-01-30T12:30:46;13.50;99.90
43151;DHT22;28755;51.478;5.702;2024-01-30T12:33:18;13.60;99.90
43151;DHT22;28755;51.478;5.702;2024-01-30T12:35:47;13.30;99.90
43151;DHT22;28755;51.478;5.702;2024-01-30T12:38:14;13.30;99.90
43151;DHT22;28755;51.478;5.702;2024-01-30T12:40:40;13.40;99.90
43151;DHT22;28755;51.478;5.702;2024-01-30T12:43:06;14.40;99.90
43151;DHT22;28755;51.478;5.702;2024-01-30T12:45:32;15.80;99.90
43151;DHT22;28755;51.478;5.702;2024-01-30T12:47:57;16.10;99.90
43151;DHT22;28755;51.478;5.702;2024-01-30T12:50:23;15.00;99.90
43151;DHT22;28755;51.478;5.702;2024-01-30T12:52:49;14.10;99.90
43151;DHT22;28755;51.478;5.702;2024-01-30T12:55:15;13.40;99.90
43151;DHT22;28755;51.478;5.702;2024-01-30T12:57:40;13.10;99.90
43151;DHT22;28755;51.478;5.702;2024-01-30T13:00:07;12.90;99.90
43151;DHT22;28755;51.478;5.702;2024-01-30T13:02:36;12.70;99.90
43151;DHT22;28755;51.478;5.702;2024-01-30T13:05:03;14.00;99.90
43151;DHT22;28755;51.478;5.702;2024-01-30T13:07:29;15.10;99.90
43151;DHT22;28755;51.478;5.702;2024-01-30T13:09:56;15.70;99.90
43151;DHT22;28755;51.478;5.702;2024-01-30T13:12:21;15.70;99.90
43151;DHT22;28755;51.478;5.702;2024-01-30T13:14:47;15.40;99.90
43151;DHT22;28755;51.478;5.702;2024-01-30T13:17:13;15.80;99.90
43151;DHT22;28755;51.478;5.702;2024-01-30T13:19:38;15.90;99.90
43151;DHT22;28755;51.478;5.702;2024-01-30T13:22:05;15.80;99.90
43151;DHT22;28755;51.478;5.702;2024-01-30T13:24:31;14.30;99.90
43151;DHT22;28755;51.478;5.702;2024-01-30T13:26:56;13.70;99.90
43151;DHT22;28755;51.478;5.702;2024-01-30T13:29:22;13.30;99.90
43151;DHT22;28755;51.478;5.702;2024-01-30T13:31:47;12.90;99.90
43151;DHT22;28755;51.478;5.702;2024-01-30T13:34:13;12.60;99.90
43151;DHT22;28755;51.478;5.702;2024-01-30T13:36:39;12.50;99.90
43151;DHT22;28755;51.478;5.702;2024-01-30T13:39:05;12.70;99.90
43151;DHT22;28755;51.478;5.702;2024-01-30T13:41:36;13.10;99.90
43151;DHT22;28755;51.478;5.702;2024-01-30T13:44:01;13.00;99.90
43151;DHT22;28755;51.478;5.702;2024-01-30T13:46:29;12.80;99.90
43151;DHT22;28755;51.478;5.702;2024-01-30T13:48:55;13.20;99.90
43151;DHT22;28755;51.478;5.702;2024-01-30T13:51:20;14.40;99.90
43151;DHT22;28755;51.478;5.702;2024-01-30T13:53:46;15.30;99.90
43151;DHT22;28755;51.478;5.702;2024-01-30T13:56:11;15.50;99.90
43151;DHT22;28755;51.478;5.702;2024-01-30T13:58:37;15.60;99.90
43151;DHT22;28755;51.478;5.702;2024-01-30T14:01:03;15.70;99.90
43151;DHT22;28755;51.478;5.702;2024-01-30T14:03:29;15.20;99.90
43151;DHT22;28755;51.478;5.702;2024-01-30T14:05:54;14.70;99.90
43151;DHT22;28755;51.478;5.702;2024-01-30T14:08:20;14.40;99.90
43151;DHT22;28755;51.478;5.702;2024-01-30T14:10:49;14.00;99.90
43151;DHT22;28755;51.478;5.702;2024-01-30T14:13:14;13.70;99.90
43151;DHT22;28755;51.478;5.702;2024-01-30T14:15:40;13.00;99.90
43151;DHT22;28755;51.478;5.702;2024-01-30T14:18:05;12.80;99.90
43151;DHT22;28755;51.478;5.702;2024-01-30T14:20:33;12.60;99.90
43151;DHT22;28755;51.478;5.702;2024-01-30T14:22:59;12.40;99.90
43151;DHT22;28755;51.478;5.702;2024-01-30T14:25:25;12.40;99.90
43151;DHT22;28755;51.478;5.702;2024-01-30T14:27:51;12.40;99.90
43151;DHT22;28755;51.478;5.702;2024-01-30T14:30:17;12.40;99.90
43151;DHT22;28755;51.478;5.702;2024-01-30T14:32:43;12.30;99.90
43151;DHT22;28755;51.478;5.702;2024-01-30T14:35:10;12.30;99.90
43151;DHT22;28755;51.478;5.702;2024-01-30T14:37:36;12.20;99.90
43151;DHT22;28755;51.478;5.702;2024-01-30T14:40:02;12.20;99.90
43151;DHT22;28755;51.478;5.702;2024-01-30T14:42:28;12.10;99.90
43151;DHT22;28755;51.478;5.702;2024-01-30T14:44:57;12.10;99.90
43151;DHT22;28755;51.478;5.702;2024-01-30T14:47:22;12.10;99.90
43151;DHT22;28755;51.478;5.702;2024-01-30T14:49:48;12.00;99.90
43151;DHT22;28755;51.478;5.702;2024-01-30T14:52:14;12.00;99.90
43151;DHT22;28755;51.478;5.702;2024-01-30T14:54:40;11.90;99.90
43151;DHT22;28755;51.478;5.702;2024-01-30T14:57:06;11.90;99.90
43151;DHT22;28755;51.478;5.702;2024-01-30T14:59:31;11.80;99.90
43151;DHT22;28755;51.478;5.702;2024-01-30T15:01:58;12.00;99.90
43151;DHT22;28755;51.478;5.702;2024-01-30T15:04:24;11.90;99.90
43151;DHT22;28755;51.478;5.702;2024-01-30T15:06:49;11.70;99.90
43151;DHT22;28755;51.478;5.702;2024-01-30T15:09:15;11.70;99.90
43151;DHT22;28755;51.478;5.702;2024-01-30T15:11:43;11.80;99.90
43151;DHT22;28755;51.478;5.702;2024-01-30T15:14:08;11.30;99.90
43151;DHT22;28755;51.478;5.702;2024-01-30T15:16:34;11.20;99.90
43151;DHT22;28755;51.478;5.702;2024-01-30T15:19:00;11.20;99.90
43151;DHT22;28755;51.478;5.702;2024-01-30T15:21:26;11.20;99.90
43151;DHT22;28755;51.478;5.702;2024-01-30T15:23:52;11.10;99.90
43151;DHT22;28755;51.478;5.702;2024-01-30T15:26:17;11.00;99.90
43151;DHT22;28755;51.478;5.702;2024-01-30T15:28:43;10.90;99.90
43151;DHT22;28755;51.478;5.702;2024-01-30T15:31:08;10.90;99.90